sensor_id;sensor_type;location;lat;lon;timestamp;P1;durP1;ratioP1;P2;durP2;ratioP2
75218;SDS011;63801;49.414;19.474;2022-11-20T00:00:25;93.03;;;35.85;;
75218;SDS011;63801;49.414;19.474;2022-11-20T00:02:25;91.05;;;35.78;;
75218;SDS011;63801;49.414;19.474;2022-11-20T00:04:26;89.60;;;34.60;;
75218;SDS011;63801;49.414;19.474;2022-11-20T00:06:26;96.97;;;36.58;;
75218;SDS011;63801;49.414;19.474;2022-11-20T00:08:27;100.72;;;35.63;;
75218;SDS011;63801;49.414;19.474;2022-11-20T00:10:28;98.20;;;36.05;;
75218;SDS011;63801;49.414;19.474;2022-11-20T00:12:28;90.30;;;34.17;;
75218;SDS011;63801;49.414;19.474;2022-11-20T00:14:28;88.97;;;37.50;;
75218;SDS011;63801;49.414;19.474;2022-11-20T00:16:30;103.30;;;37.55;;
75218;SDS011;63801;49.414;19.474;2022-11-20T00:18:34;101.35;;;39.25;;
75218;SDS011;63801;49.414;19.474;2022-11-20T00:20:35;102.55;;;39.92;;
75218;SDS011;63801;49.414;19.474;2022-11-20T00:22:35;106.30;;;41.13;;
75218;SDS011;63801;49.414;19.474;2022-11-20T00:24:35;108.72;;;40.72;;
75218;SDS011;63801;49.414;19.474;2022-11-20T00:26:36;120.00;;;43.78;;
75218;SDS011;63801;49.414;19.474;2022-11-20T00:28:36;104.10;;;37.63;;
75218;SDS011;63801;49.414;19.474;2022-11-20T00:30:37;110.55;;;40.38;;
75218;SDS011;63801;49.414;19.474;2022-11-20T00:32:37;111.18;;;40.55;;
75218;SDS011;63801;49.414;19.474;2022-11-20T00:34:37;109.13;;;40.65;;
75218;SDS011;63801;49.414;19.474;2022-11-20T00:36:38;111.75;;;43.05;;
75218;SDS011;63801;49.414;19.474;2022-11-20T00:38:38;106.47;;;40.35;;
75218;SDS011;63801;49.414;19.474;2022-11-20T00:40:38;109.38;;;42.97;;
75218;SDS011;63801;49.414;19.474;2022-11-20T00:42:39;113.28;;;43.63;;
75218;SDS011;63801;49.414;19.474;2022-11-20T00:44:39;111.80;;;41.85;;
75218;SDS011;63801;49.414;19.474;2022-11-20T00:46:39;109.70;;;39.42;;
75218;SDS011;63801;49.414;19.474;2022-11-20T00:48:39;111.70;;;41.35;;
75218;SDS011;63801;49.414;19.474;2022-11-20T00:50:40;104.22;;;39.83;;
75218;SDS011;63801;49.414;19.474;2022-11-20T00:52:41;104.28;;;38.10;;
75218;SDS011;63801;49.414;19.474;2022-11-20T00:54:41;103.78;;;38.92;;
75218;SDS011;63801;49.414;19.474;2022-11-20T00:56:42;103.47;;;39.85;;
75218;SDS011;63801;49.414;19.474;2022-11-20T00:58:43;98.47;;;39.67;;
75218;SDS011;63801;49.414;19.474;2022-11-20T01:00:45;107.90;;;41.00;;
75218;SDS011;63801;49.414;19.474;2022-11-20T01:02:45;117.93;;;41.70;;
75218;SDS011;63801;49.414;19.474;2022-11-20T01:04:45;107.97;;;40.13;;
75218;SDS011;63801;49.414;19.474;2022-11-20T01:06:45;107.15;;;39.28;;
75218;SDS011;63801;49.414;19.474;2022-11-20T01:08:46;100.30;;;37.67;;
75218;SDS011;63801;49.414;19.474;2022-11-20T01:10:47;112.50;;;40.90;;
75218;SDS011;63801;49.414;19.474;2022-11-20T01:12:47;110.80;;;39.70;;
75218;SDS011;63801;49.414;19.474;2022-11-20T01:15:08;105.57;;;38.30;;
75218;SDS011;63801;49.414;19.474;2022-11-20T01:17:08;104.03;;;38.40;;
75218;SDS011;63801;49.414;19.474;2022-11-20T01:19:13;106.97;;;39.33;;
75218;SDS011;63801;49.414;19.474;2022-11-20T01:21:17;104.38;;;37.67;;
75218;SDS011;63801;49.414;19.474;2022-11-20T01:23:22;107.10;;;39.55;;
75218;SDS011;63801;49.414;19.474;2022-11-20T01:25:22;92.65;;;37.25;;
75218;SDS011;63801;49.414;19.474;2022-11-20T01:27:23;100.57;;;37.20;;
75218;SDS011;63801;49.414;19.474;2022-11-20T01:29:23;100.43;;;37.90;;
75218;SDS011;63801;49.414;19.474;2022-11-20T01:33:26;105.43;;;38.25;;
75218;SDS011;63801;49.414;19.474;2022-11-20T01:35:27;95.38;;;37.30;;
75218;SDS011;63801;49.414;19.474;2022-11-20T01:37:27;106.40;;;38.75;;
75218;SDS011;63801;49.414;19.474;2022-11-20T01:39:27;105.75;;;40.47;;
75218;SDS011;63801;49.414;19.474;2022-11-20T01:41:29;108.75;;;39.80;;
75218;SDS011;63801;49.414;19.474;2022-11-20T01:43:49;105.32;;;39.38;;
75218;SDS011;63801;49.414;19.474;2022-11-20T01:47:57;107.10;;;40.20;;
75218;SDS011;63801;49.414;19.474;2022-11-20T01:52:17;101.28;;;38.97;;
75218;SDS011;63801;49.414;19.474;2022-11-20T01:54:24;101.78;;;38.40;;
75218;SDS011;63801;49.414;19.474;2022-11-20T01:56:29;107.32;;;41.97;;
75218;SDS011;63801;49.414;19.474;2022-11-20T01:58:35;108.40;;;41.58;;
75218;SDS011;63801;49.414;19.474;2022-11-20T02:00:42;100.57;;;39.58;;
75218;SDS011;63801;49.414;19.474;2022-11-20T02:02:44;102.53;;;37.22;;
75218;SDS011;63801;49.414;19.474;2022-11-20T02:04:51;95.82;;;36.10;;
75218;SDS011;63801;49.414;19.474;2022-11-20T02:07:00;102.43;;;38.00;;
75218;SDS011;63801;49.414;19.474;2022-11-20T02:09:02;98.25;;;36.03;;
75218;SDS011;63801;49.414;19.474;2022-11-20T02:11:02;97.32;;;35.83;;
75218;SDS011;63801;49.414;19.474;2022-11-20T02:13:03;92.53;;;36.03;;
75218;SDS011;63801;49.414;19.474;2022-11-20T02:15:22;96.68;;;34.80;;
75218;SDS011;63801;49.414;19.474;2022-11-20T02:17:23;87.45;;;33.47;;
75218;SDS011;63801;49.414;19.474;2022-11-20T02:19:28;92.10;;;35.22;;
75218;SDS011;63801;49.414;19.474;2022-11-20T02:23:59;91.10;;;36.35;;
75218;SDS011;63801;49.414;19.474;2022-11-20T02:26:02;92.28;;;36.42;;
75218;SDS011;63801;49.414;19.474;2022-11-20T02:28:05;90.55;;;34.42;;
75218;SDS011;63801;49.414;19.474;2022-11-20T02:30:06;92.45;;;34.97;;
75218;SDS011;63801;49.414;19.474;2022-11-20T02:34:20;97.07;;;37.05;;
75218;SDS011;63801;49.414;19.474;2022-11-20T02:36:21;92.65;;;34.95;;
75218;SDS011;63801;49.414;19.474;2022-11-20T02:38:21;85.28;;;34.47;;
75218;SDS011;63801;49.414;19.474;2022-11-20T02:40:22;94.25;;;35.50;;
75218;SDS011;63801;49.414;19.474;2022-11-20T02:42:23;98.72;;;35.55;;
75218;SDS011;63801;49.414;19.474;2022-11-20T02:44:23;94.70;;;38.67;;
75218;SDS011;63801;49.414;19.474;2022-11-20T02:46:23;102.63;;;37.22;;
75218;SDS011;63801;49.414;19.474;2022-11-20T02:48:24;102.18;;;37.80;;
75218;SDS011;63801;49.414;19.474;2022-11-20T02:50:24;93.63;;;35.17;;
75218;SDS011;63801;49.414;19.474;2022-11-20T02:52:25;85.88;;;33.85;;
75218;SDS011;63801;49.414;19.474;2022-11-20T02:54:26;96.47;;;36.42;;
75218;SDS011;63801;49.414;19.474;2022-11-20T02:56:26;97.32;;;37.63;;
75218;SDS011;63801;49.414;19.474;2022-11-20T02:58:27;94.20;;;35.88;;
75218;SDS011;63801;49.414;19.474;2022-11-20T03:00:27;94.15;;;36.15;;
75218;SDS011;63801;49.414;19.474;2022-11-20T03:02:30;92.55;;;36.03;;
75218;SDS011;63801;49.414;19.474;2022-11-20T03:04:31;90.65;;;36.33;;
75218;SDS011;63801;49.414;19.474;2022-11-20T03:06:31;97.68;;;37.90;;
75218;SDS011;63801;49.414;19.474;2022-11-20T03:08:32;95.55;;;35.78;;
75218;SDS011;63801;49.414;19.474;2022-11-20T03:10:32;93.40;;;36.28;;
75218;SDS011;63801;49.414;19.474;2022-11-20T03:12:32;96.90;;;37.53;;
75218;SDS011;63801;49.414;19.474;2022-11-20T03:14:32;97.50;;;37.17;;
75218;SDS011;63801;49.414;19.474;2022-11-20T03:16:34;99.70;;;35.80;;
75218;SDS011;63801;49.414;19.474;2022-11-20T03:18:34;100.40;;;36.85;;
75218;SDS011;63801;49.414;19.474;2022-11-20T03:20:34;92.10;;;37.30;;
75218;SDS011;63801;49.414;19.474;2022-11-20T03:22:35;95.00;;;34.20;;
75218;SDS011;63801;49.414;19.474;2022-11-20T03:24:35;88.95;;;34.35;;
75218;SDS011;63801;49.414;19.474;2022-11-20T03:26:35;92.38;;;35.78;;
75218;SDS011;63801;49.414;19.474;2022-11-20T03:28:36;91.68;;;35.78;;
75218;SDS011;63801;49.414;19.474;2022-11-20T03:30:36;90.70;;;34.30;;
75218;SDS011;63801;49.414;19.474;2022-11-20T03:32:37;88.53;;;34.35;;
75218;SDS011;63801;49.414;19.474;2022-11-20T03:34:37;93.50;;;34.28;;
75218;SDS011;63801;49.414;19.474;2022-11-20T03:36:41;86.15;;;34.42;;
75218;SDS011;63801;49.414;19.474;2022-11-20T03:38:42;101.15;;;37.00;;
75218;SDS011;63801;49.414;19.474;2022-11-20T03:40:43;89.25;;;35.35;;
75218;SDS011;63801;49.414;19.474;2022-11-20T03:42:43;92.28;;;34.67;;
75218;SDS011;63801;49.414;19.474;2022-11-20T03:44:46;89.30;;;33.22;;
75218;SDS011;63801;49.414;19.474;2022-11-20T03:46:46;90.57;;;33.83;;
75218;SDS011;63801;49.414;19.474;2022-11-20T03:48:47;87.45;;;32.40;;
75218;SDS011;63801;49.414;19.474;2022-11-20T03:50:48;88.40;;;34.67;;
75218;SDS011;63801;49.414;19.474;2022-11-20T03:52:48;100.15;;;36.88;;
75218;SDS011;63801;49.414;19.474;2022-11-20T03:54:48;98.07;;;36.08;;
75218;SDS011;63801;49.414;19.474;2022-11-20T03:56:49;96.82;;;36.30;;
75218;SDS011;63801;49.414;19.474;2022-11-20T03:58:49;93.40;;;36.53;;
75218;SDS011;63801;49.414;19.474;2022-11-20T04:00:50;97.30;;;37.03;;
75218;SDS011;63801;49.414;19.474;2022-11-20T04:02:50;99.75;;;38.10;;
75218;SDS011;63801;49.414;19.474;2022-11-20T04:04:50;91.55;;;35.67;;
75218;SDS011;63801;49.414;19.474;2022-11-20T04:06:50;103.82;;;37.30;;
75218;SDS011;63801;49.414;19.474;2022-11-20T04:08:51;101.00;;;38.05;;
75218;SDS011;63801;49.414;19.474;2022-11-20T04:10:53;103.45;;;40.10;;
75218;SDS011;63801;49.414;19.474;2022-11-20T04:12:53;102.53;;;38.85;;
75218;SDS011;63801;49.414;19.474;2022-11-20T04:14:54;87.47;;;36.70;;
75218;SDS011;63801;49.414;19.474;2022-11-20T04:16:54;95.60;;;36.22;;
75218;SDS011;63801;49.414;19.474;2022-11-20T04:18:55;81.05;;;33.38;;
75218;SDS011;63801;49.414;19.474;2022-11-20T04:20:58;92.25;;;36.30;;
75218;SDS011;63801;49.414;19.474;2022-11-20T04:22:59;102.30;;;36.03;;
75218;SDS011;63801;49.414;19.474;2022-11-20T04:25:00;87.10;;;35.30;;
75218;SDS011;63801;49.414;19.474;2022-11-20T04:27:00;88.80;;;35.63;;
75218;SDS011;63801;49.414;19.474;2022-11-20T04:29:00;83.03;;;34.05;;
75218;SDS011;63801;49.414;19.474;2022-11-20T04:31:04;88.88;;;35.83;;
75218;SDS011;63801;49.414;19.474;2022-11-20T04:33:07;88.55;;;34.38;;
75218;SDS011;63801;49.414;19.474;2022-11-20T04:35:07;92.25;;;33.15;;
75218;SDS011;63801;49.414;19.474;2022-11-20T04:37:08;89.80;;;35.35;;
75218;SDS011;63801;49.414;19.474;2022-11-20T04:39:11;104.95;;;36.72;;
75218;SDS011;63801;49.414;19.474;2022-11-20T04:41:17;104.75;;;40.60;;
75218;SDS011;63801;49.414;19.474;2022-11-20T04:43:18;113.50;;;43.75;;
75218;SDS011;63801;49.414;19.474;2022-11-20T04:45:18;111.10;;;39.58;;
75218;SDS011;63801;49.414;19.474;2022-11-20T04:47:19;178.77;;;60.92;;
75218;SDS011;63801;49.414;19.474;2022-11-20T04:49:20;128.93;;;45.30;;
75218;SDS011;63801;49.414;19.474;2022-11-20T04:51:20;199.55;;;67.70;;
75218;SDS011;63801;49.414;19.474;2022-11-20T04:53:21;128.43;;;45.70;;
75218;SDS011;63801;49.414;19.474;2022-11-20T04:55:22;114.97;;;41.10;;
75218;SDS011;63801;49.414;19.474;2022-11-20T04:57:22;107.00;;;39.15;;
75218;SDS011;63801;49.414;19.474;2022-11-20T04:59:23;156.00;;;52.92;;
75218;SDS011;63801;49.414;19.474;2022-11-20T05:01:23;163.80;;;57.45;;
75218;SDS011;63801;49.414;19.474;2022-11-20T05:03:24;138.48;;;49.97;;
75218;SDS011;63801;49.414;19.474;2022-11-20T05:05:24;110.47;;;42.15;;
75218;SDS011;63801;49.414;19.474;2022-11-20T05:07:25;98.05;;;38.75;;
75218;SDS011;63801;49.414;19.474;2022-11-20T05:09:25;109.35;;;39.17;;
75218;SDS011;63801;49.414;19.474;2022-11-20T05:11:26;115.72;;;40.03;;
75218;SDS011;63801;49.414;19.474;2022-11-20T05:13:28;108.63;;;40.45;;
75218;SDS011;63801;49.414;19.474;2022-11-20T05:15:29;104.43;;;38.22;;
75218;SDS011;63801;49.414;19.474;2022-11-20T05:17:29;108.93;;;42.58;;
75218;SDS011;63801;49.414;19.474;2022-11-20T05:19:29;103.90;;;39.88;;
75218;SDS011;63801;49.414;19.474;2022-11-20T05:21:30;98.57;;;38.17;;
75218;SDS011;63801;49.414;19.474;2022-11-20T05:23:32;102.93;;;36.10;;
75218;SDS011;63801;49.414;19.474;2022-11-20T05:25:33;106.90;;;42.55;;
75218;SDS011;63801;49.414;19.474;2022-11-20T05:27:33;134.57;;;52.67;;
75218;SDS011;63801;49.414;19.474;2022-11-20T05:29:33;129.80;;;49.78;;
75218;SDS011;63801;49.414;19.474;2022-11-20T05:31:34;111.45;;;42.65;;
75218;SDS011;63801;49.414;19.474;2022-11-20T05:33:34;117.82;;;43.25;;
75218;SDS011;63801;49.414;19.474;2022-11-20T05:35:36;111.43;;;45.38;;
75218;SDS011;63801;49.414;19.474;2022-11-20T05:37:36;99.95;;;39.70;;
75218;SDS011;63801;49.414;19.474;2022-11-20T05:39:36;99.00;;;43.38;;
75218;SDS011;63801;49.414;19.474;2022-11-20T05:41:36;96.10;;;37.95;;
75218;SDS011;63801;49.414;19.474;2022-11-20T05:43:40;104.35;;;38.63;;
75218;SDS011;63801;49.414;19.474;2022-11-20T05:45:52;105.70;;;39.35;;
75218;SDS011;63801;49.414;19.474;2022-11-20T05:47:56;99.60;;;38.47;;
75218;SDS011;63801;49.414;19.474;2022-11-20T05:49:58;93.43;;;37.63;;
75218;SDS011;63801;49.414;19.474;2022-11-20T05:51:58;114.72;;;41.08;;
75218;SDS011;63801;49.414;19.474;2022-11-20T05:53:59;114.45;;;41.72;;
75218;SDS011;63801;49.414;19.474;2022-11-20T05:56:06;104.18;;;38.63;;
75218;SDS011;63801;49.414;19.474;2022-11-20T05:58:09;130.65;;;49.63;;
75218;SDS011;63801;49.414;19.474;2022-11-20T06:00:10;119.97;;;48.00;;
75218;SDS011;63801;49.414;19.474;2022-11-20T06:02:11;109.85;;;42.20;;
75218;SDS011;63801;49.414;19.474;2022-11-20T06:04:11;98.15;;;39.28;;
75218;SDS011;63801;49.414;19.474;2022-11-20T06:06:12;106.65;;;41.97;;
75218;SDS011;63801;49.414;19.474;2022-11-20T06:08:13;100.32;;;38.13;;
75218;SDS011;63801;49.414;19.474;2022-11-20T06:10:13;99.68;;;37.58;;
75218;SDS011;63801;49.414;19.474;2022-11-20T06:12:13;96.60;;;36.17;;
75218;SDS011;63801;49.414;19.474;2022-11-20T06:14:14;103.10;;;37.67;;
75218;SDS011;63801;49.414;19.474;2022-11-20T06:16:15;102.20;;;37.72;;
75218;SDS011;63801;49.414;19.474;2022-11-20T06:20:17;109.28;;;39.10;;
75218;SDS011;63801;49.414;19.474;2022-11-20T06:22:18;102.78;;;37.20;;
75218;SDS011;63801;49.414;19.474;2022-11-20T06:24:18;98.32;;;37.33;;
75218;SDS011;63801;49.414;19.474;2022-11-20T06:26:19;97.47;;;37.33;;
75218;SDS011;63801;49.414;19.474;2022-11-20T06:28:21;197.60;;;64.97;;
75218;SDS011;63801;49.414;19.474;2022-11-20T06:30:22;131.20;;;47.08;;
75218;SDS011;63801;49.414;19.474;2022-11-20T06:32:22;101.63;;;40.03;;
75218;SDS011;63801;49.414;19.474;2022-11-20T06:34:22;114.15;;;44.60;;
75218;SDS011;63801;49.414;19.474;2022-11-20T06:36:22;108.65;;;40.63;;
75218;SDS011;63801;49.414;19.474;2022-11-20T06:38:23;103.68;;;39.63;;
75218;SDS011;63801;49.414;19.474;2022-11-20T06:40:24;98.10;;;40.28;;
75218;SDS011;63801;49.414;19.474;2022-11-20T06:42:25;103.85;;;40.97;;
75218;SDS011;63801;49.414;19.474;2022-11-20T06:44:25;114.82;;;43.08;;
75218;SDS011;63801;49.414;19.474;2022-11-20T06:46:27;122.20;;;46.78;;
75218;SDS011;63801;49.414;19.474;2022-11-20T06:48:29;120.30;;;45.08;;
75218;SDS011;63801;49.414;19.474;2022-11-20T06:50:29;112.93;;;43.70;;
75218;SDS011;63801;49.414;19.474;2022-11-20T06:52:30;129.90;;;48.28;;
75218;SDS011;63801;49.414;19.474;2022-11-20T06:54:30;128.10;;;43.58;;
75218;SDS011;63801;49.414;19.474;2022-11-20T06:56:30;120.30;;;44.60;;
75218;SDS011;63801;49.414;19.474;2022-11-20T06:58:31;114.50;;;42.05;;
75218;SDS011;63801;49.414;19.474;2022-11-20T07:00:33;101.72;;;38.35;;
75218;SDS011;63801;49.414;19.474;2022-11-20T07:02:33;116.03;;;42.72;;
75218;SDS011;63801;49.414;19.474;2022-11-20T07:04:34;105.05;;;39.70;;
75218;SDS011;63801;49.414;19.474;2022-11-20T07:06:34;99.95;;;38.15;;
75218;SDS011;63801;49.414;19.474;2022-11-20T07:08:34;102.30;;;38.22;;
75218;SDS011;63801;49.414;19.474;2022-11-20T07:10:35;116.38;;;46.15;;
75218;SDS011;63801;49.414;19.474;2022-11-20T07:12:36;120.72;;;47.22;;
75218;SDS011;63801;49.414;19.474;2022-11-20T07:14:36;92.55;;;36.00;;
75218;SDS011;63801;49.414;19.474;2022-11-20T07:16:36;96.03;;;37.20;;
75218;SDS011;63801;49.414;19.474;2022-11-20T07:18:37;91.90;;;36.50;;
75218;SDS011;63801;49.414;19.474;2022-11-20T07:20:37;88.18;;;36.40;;
75218;SDS011;63801;49.414;19.474;2022-11-20T07:22:37;97.65;;;38.10;;
75218;SDS011;63801;49.414;19.474;2022-11-20T07:24:38;95.28;;;37.25;;
75218;SDS011;63801;49.414;19.474;2022-11-20T07:26:38;92.30;;;37.22;;
75218;SDS011;63801;49.414;19.474;2022-11-20T07:28:39;106.85;;;41.60;;
75218;SDS011;63801;49.414;19.474;2022-11-20T07:30:39;113.88;;;44.22;;
75218;SDS011;63801;49.414;19.474;2022-11-20T07:32:39;115.53;;;43.70;;
75218;SDS011;63801;49.414;19.474;2022-11-20T07:34:40;120.47;;;44.08;;
75218;SDS011;63801;49.414;19.474;2022-11-20T07:36:40;118.57;;;42.80;;
75218;SDS011;63801;49.414;19.474;2022-11-20T07:38:40;108.57;;;41.65;;
75218;SDS011;63801;49.414;19.474;2022-11-20T07:40:41;112.78;;;42.17;;
75218;SDS011;63801;49.414;19.474;2022-11-20T07:42:50;110.20;;;40.67;;
75218;SDS011;63801;49.414;19.474;2022-11-20T07:44:52;99.60;;;38.97;;
75218;SDS011;63801;49.414;19.474;2022-11-20T07:46:52;107.53;;;40.70;;
75218;SDS011;63801;49.414;19.474;2022-11-20T07:48:52;101.53;;;40.92;;
75218;SDS011;63801;49.414;19.474;2022-11-20T07:50:53;124.65;;;48.00;;
75218;SDS011;63801;49.414;19.474;2022-11-20T07:53:01;103.87;;;41.60;;
75218;SDS011;63801;49.414;19.474;2022-11-20T07:55:02;101.70;;;39.33;;
75218;SDS011;63801;49.414;19.474;2022-11-20T07:57:03;106.22;;;40.35;;
75218;SDS011;63801;49.414;19.474;2022-11-20T07:59:03;101.05;;;39.85;;
75218;SDS011;63801;49.414;19.474;2022-11-20T08:01:05;98.70;;;41.42;;
75218;SDS011;63801;49.414;19.474;2022-11-20T08:03:06;93.68;;;41.67;;
75218;SDS011;63801;49.414;19.474;2022-11-20T08:05:07;99.05;;;42.78;;
75218;SDS011;63801;49.414;19.474;2022-11-20T08:07:08;96.65;;;41.70;;
75218;SDS011;63801;49.414;19.474;2022-11-20T08:09:09;184.38;;;75.22;;
75218;SDS011;63801;49.414;19.474;2022-11-20T08:11:09;116.75;;;49.55;;
75218;SDS011;63801;49.414;19.474;2022-11-20T08:13:28;72.40;;;30.33;;
75218;SDS011;63801;49.414;19.474;2022-11-20T08:15:48;76.22;;;33.28;;
75218;SDS011;63801;49.414;19.474;2022-11-20T08:17:58;74.18;;;32.83;;
75218;SDS011;63801;49.414;19.474;2022-11-20T08:20:03;71.45;;;33.13;;
75218;SDS011;63801;49.414;19.474;2022-11-20T08:22:03;69.95;;;31.52;;
75218;SDS011;63801;49.414;19.474;2022-11-20T08:24:04;80.68;;;33.78;;
75218;SDS011;63801;49.414;19.474;2022-11-20T08:26:05;87.70;;;37.47;;
75218;SDS011;63801;49.414;19.474;2022-11-20T08:28:06;88.45;;;36.28;;
75218;SDS011;63801;49.414;19.474;2022-11-20T08:30:09;85.18;;;34.78;;
75218;SDS011;63801;49.414;19.474;2022-11-20T08:32:10;91.15;;;39.13;;
75218;SDS011;63801;49.414;19.474;2022-11-20T08:34:10;98.35;;;40.28;;
75218;SDS011;63801;49.414;19.474;2022-11-20T08:36:10;128.65;;;48.88;;
75218;SDS011;63801;49.414;19.474;2022-11-20T08:38:11;104.35;;;42.28;;
75218;SDS011;63801;49.414;19.474;2022-11-20T08:40:11;114.88;;;45.83;;
75218;SDS011;63801;49.414;19.474;2022-11-20T08:42:12;89.03;;;37.75;;
75218;SDS011;63801;49.414;19.474;2022-11-20T08:44:12;114.28;;;46.53;;
75218;SDS011;63801;49.414;19.474;2022-11-20T08:46:12;104.10;;;42.80;;
75218;SDS011;63801;49.414;19.474;2022-11-20T08:48:12;110.53;;;43.95;;
75218;SDS011;63801;49.414;19.474;2022-11-20T08:50:13;112.63;;;46.13;;
75218;SDS011;63801;49.414;19.474;2022-11-20T08:52:14;92.80;;;39.85;;
75218;SDS011;63801;49.414;19.474;2022-11-20T08:54:15;124.38;;;57.50;;
75218;SDS011;63801;49.414;19.474;2022-11-20T08:56:17;132.82;;;69.40;;
75218;SDS011;63801;49.414;19.474;2022-11-20T08:58:18;98.80;;;47.65;;
75218;SDS011;63801;49.414;19.474;2022-11-20T09:00:18;136.05;;;81.95;;
75218;SDS011;63801;49.414;19.474;2022-11-20T09:02:18;140.90;;;84.70;;
75218;SDS011;63801;49.414;19.474;2022-11-20T09:04:19;99.38;;;47.03;;
75218;SDS011;63801;49.414;19.474;2022-11-20T09:06:19;94.45;;;44.67;;
75218;SDS011;63801;49.414;19.474;2022-11-20T09:08:19;147.05;;;99.78;;
75218;SDS011;63801;49.414;19.474;2022-11-20T09:10:20;108.07;;;54.47;;
75218;SDS011;63801;49.414;19.474;2022-11-20T09:12:20;99.78;;;45.20;;
75218;SDS011;63801;49.414;19.474;2022-11-20T09:14:20;100.13;;;46.03;;
75218;SDS011;63801;49.414;19.474;2022-11-20T09:16:21;106.05;;;48.38;;
75218;SDS011;63801;49.414;19.474;2022-11-20T09:18:21;106.53;;;48.17;;
75218;SDS011;63801;49.414;19.474;2022-11-20T09:20:22;106.85;;;49.78;;
75218;SDS011;63801;49.414;19.474;2022-11-20T09:22:23;122.47;;;54.92;;
75218;SDS011;63801;49.414;19.474;2022-11-20T09:24:23;108.13;;;47.90;;
75218;SDS011;63801;49.414;19.474;2022-11-20T09:26:23;141.30;;;64.55;;
75218;SDS011;63801;49.414;19.474;2022-11-20T09:28:24;132.85;;;59.50;;
75218;SDS011;63801;49.414;19.474;2022-11-20T09:30:24;113.32;;;49.88;;
75218;SDS011;63801;49.414;19.474;2022-11-20T09:32:25;105.50;;;49.90;;
75218;SDS011;63801;49.414;19.474;2022-11-20T09:34:25;120.85;;;57.13;;
75218;SDS011;63801;49.414;19.474;2022-11-20T09:36:26;104.85;;;46.55;;
75218;SDS011;63801;49.414;19.474;2022-11-20T09:38:26;99.07;;;44.78;;
75218;SDS011;63801;49.414;19.474;2022-11-20T09:40:27;119.43;;;56.22;;
75218;SDS011;63801;49.414;19.474;2022-11-20T09:42:32;134.80;;;58.97;;
75218;SDS011;63801;49.414;19.474;2022-11-20T09:47:16;101.05;;;45.63;;
75218;SDS011;63801;49.414;19.474;2022-11-20T09:51:39;100.70;;;48.00;;
75218;SDS011;63801;49.414;19.474;2022-11-20T09:56:33;303.13;;;118.97;;
75218;SDS011;63801;49.414;19.474;2022-11-20T10:00:42;113.15;;;52.80;;
75218;SDS011;63801;49.414;19.474;2022-11-20T10:02:52;109.95;;;50.47;;
75218;SDS011;63801;49.414;19.474;2022-11-20T10:05:02;114.43;;;50.45;;
75218;SDS011;63801;49.414;19.474;2022-11-20T10:07:08;113.40;;;49.72;;
75218;SDS011;63801;49.414;19.474;2022-11-20T10:09:20;114.78;;;50.08;;
75218;SDS011;63801;49.414;19.474;2022-11-20T10:13:49;110.90;;;46.13;;
75218;SDS011;63801;49.414;19.474;2022-11-20T10:16:08;123.45;;;54.58;;
75218;SDS011;63801;49.414;19.474;2022-11-20T10:26:59;58.28;;;25.63;;
75218;SDS011;63801;49.414;19.474;2022-11-20T10:31:17;60.90;;;27.40;;
75218;SDS011;63801;49.414;19.474;2022-11-20T10:33:29;71.97;;;32.47;;
75218;SDS011;63801;49.414;19.474;2022-11-20T10:38:20;114.38;;;43.08;;
75218;SDS011;63801;49.414;19.474;2022-11-20T10:40:30;150.10;;;52.75;;
75218;SDS011;63801;49.414;19.474;2022-11-20T10:42:45;84.18;;;35.30;;
75218;SDS011;63801;49.414;19.474;2022-11-20T10:45:02;137.18;;;58.85;;
75218;SDS011;63801;49.414;19.474;2022-11-20T10:47:18;89.85;;;41.42;;
75218;SDS011;63801;49.414;19.474;2022-11-20T10:49:19;73.20;;;32.08;;
75218;SDS011;63801;49.414;19.474;2022-11-20T10:51:37;90.07;;;40.53;;
75218;SDS011;63801;49.414;19.474;2022-11-20T10:53:42;68.03;;;30.70;;
75218;SDS011;63801;49.414;19.474;2022-11-20T10:55:48;84.85;;;34.20;;
75218;SDS011;63801;49.414;19.474;2022-11-20T10:58:00;55.80;;;24.27;;
75218;SDS011;63801;49.414;19.474;2022-11-20T11:00:04;52.53;;;21.95;;
75218;SDS011;63801;49.414;19.474;2022-11-20T11:02:22;55.75;;;24.60;;
75218;SDS011;63801;49.414;19.474;2022-11-20T11:04:33;54.15;;;22.40;;
75218;SDS011;63801;49.414;19.474;2022-11-20T11:06:40;50.47;;;23.23;;
75218;SDS011;63801;49.414;19.474;2022-11-20T11:08:47;39.72;;;17.35;;
75218;SDS011;63801;49.414;19.474;2022-11-20T11:10:53;62.03;;;31.90;;
75218;SDS011;63801;49.414;19.474;2022-11-20T11:12:57;41.13;;;20.25;;
75218;SDS011;63801;49.414;19.474;2022-11-20T11:14:57;48.20;;;19.88;;
75218;SDS011;63801;49.414;19.474;2022-11-20T11:16:57;66.82;;;32.13;;
75218;SDS011;63801;49.414;19.474;2022-11-20T11:19:04;92.72;;;44.63;;
75218;SDS011;63801;49.414;19.474;2022-11-20T11:21:05;95.28;;;49.30;;
75218;SDS011;63801;49.414;19.474;2022-11-20T11:23:10;60.33;;;31.60;;
75218;SDS011;63801;49.414;19.474;2022-11-20T11:25:29;43.08;;;22.20;;
75218;SDS011;63801;49.414;19.474;2022-11-20T11:27:30;40.78;;;18.38;;
75218;SDS011;63801;49.414;19.474;2022-11-20T11:29:30;42.40;;;22.23;;
75218;SDS011;63801;49.414;19.474;2022-11-20T11:31:32;28.58;;;14.13;;
75218;SDS011;63801;49.414;19.474;2022-11-20T11:33:34;27.08;;;13.40;;
75218;SDS011;63801;49.414;19.474;2022-11-20T11:35:38;37.50;;;19.63;;
75218;SDS011;63801;49.414;19.474;2022-11-20T11:37:44;39.25;;;21.02;;
75218;SDS011;63801;49.414;19.474;2022-11-20T11:39:47;37.85;;;19.40;;
75218;SDS011;63801;49.414;19.474;2022-11-20T11:41:48;32.22;;;17.25;;
75218;SDS011;63801;49.414;19.474;2022-11-20T11:43:51;40.05;;;20.45;;
75218;SDS011;63801;49.414;19.474;2022-11-20T11:46:23;36.40;;;17.45;;
75218;SDS011;63801;49.414;19.474;2022-11-20T11:48:27;31.40;;;13.48;;
75218;SDS011;63801;49.414;19.474;2022-11-20T11:50:28;29.17;;;12.32;;
75218;SDS011;63801;49.414;19.474;2022-11-20T11:52:29;23.80;;;11.70;;
75218;SDS011;63801;49.414;19.474;2022-11-20T11:56:54;31.58;;;14.07;;
75218;SDS011;63801;49.414;19.474;2022-11-20T11:58:56;29.52;;;14.10;;
75218;SDS011;63801;49.414;19.474;2022-11-20T12:01:03;41.72;;;18.60;;
75218;SDS011;63801;49.414;19.474;2022-11-20T12:03:16;77.43;;;29.40;;
75218;SDS011;63801;49.414;19.474;2022-11-20T12:05:25;36.17;;;16.50;;
75218;SDS011;63801;49.414;19.474;2022-11-20T12:09:43;56.42;;;18.45;;
75218;SDS011;63801;49.414;19.474;2022-11-20T12:12:22;37.50;;;14.18;;
75218;SDS011;63801;49.414;19.474;2022-11-20T12:14:19;44.33;;;17.50;;
75218;SDS011;63801;49.414;19.474;2022-11-20T12:16:26;28.02;;;13.82;;
75218;SDS011;63801;49.414;19.474;2022-11-20T12:18:27;16.70;;;8.02;;
75218;SDS011;63801;49.414;19.474;2022-11-20T12:20:32;19.42;;;9.98;;
75218;SDS011;63801;49.414;19.474;2022-11-20T12:22:55;18.40;;;9.82;;
75218;SDS011;63801;49.414;19.474;2022-11-20T12:25:04;18.08;;;9.82;;